sensor_id;sensor_type;location;lat;lon;timestamp;pressure;altitude;pressure_sealevel;temperature;humidity
13593;BME280;6867;50.998;4.250;2023-01-27T00:00:13;102014.84;;;8.20;63.07
13593;BME280;6867;50.998;4.250;2023-01-27T00:02:42;102031.38;;;8.50;63.27
13593;BME280;6867;50.998;4.250;2023-01-27T00:05:10;102037.28;;;8.27;64.18
13593;BME280;6867;50.998;4.250;2023-01-27T00:07:37;102032.00;;;8.43;63.71
13593;BME280;6867;50.998;4.250;2023-01-27T00:10:12;102033.97;;;8.33;63.96
13593;BME280;6867;50.998;4.250;2023-01-27T00:12:39;102040.88;;;8.44;63.88
13593;BME280;6867;50.998;4.250;2023-01-27T00:15:23;102037.59;;;8.16;63.53
13593;BME280;6867;50.998;4.250;2023-01-27T00:17:51;102063.69;;;8.22;63.94
13593;BME280;6867;50.998;4.250;2023-01-27T00:20:18;102055.63;;;8.14;65.16
13593;BME280;6867;50.998;4.250;2023-01-27T00:23:11;102062.47;;;8.42;64.53
13593;BME280;6867;50.998;4.250;2023-01-27T00:25:57;102050.31;;;8.22;64.33
13593;BME280;6867;50.998;4.250;2023-01-27T00:28:24;102075.69;;;8.10;65.19
13593;BME280;6867;50.998;4.250;2023-01-27T00:30:56;102064.09;;;8.35;64.19
13593;BME280;6867;50.998;4.250;2023-01-27T00:33:24;102072.25;;;8.26;64.91
13593;BME280;6867;50.998;4.250;2023-01-27T00:35:55;102064.22;;;8.26;64.91
13593;BME280;6867;50.998;4.250;2023-01-27T00:38:22;102073.31;;;8.07;65.15
13593;BME280;6867;50.998;4.250;2023-01-27T00:40:49;102091.81;;;8.26;65.32
13593;BME280;6867;50.998;4.250;2023-01-27T00:43:30;102080.28;;;8.26;65.64
13593;BME280;6867;50.998;4.250;2023-01-27T00:45:56;102069.09;;;8.30;64.69
13593;BME280;6867;50.998;4.250;2023-01-27T00:48:24;102085.47;;;8.27;66.00
13593;BME280;6867;50.998;4.250;2023-01-27T00:50:51;102092.13;;;8.23;65.40
13593;BME280;6867;50.998;4.250;2023-01-27T00:53:18;102070.63;;;8.33;65.12
13593;BME280;6867;50.998;4.250;2023-01-27T00:55:45;102091.47;;;8.21;65.56
13593;BME280;6867;50.998;4.250;2023-01-27T00:58:13;102093.84;;;8.24;65.73
13593;BME280;6867;50.998;4.250;2023-01-27T01:00:39;102088.59;;;8.40;65.98
13593;BME280;6867;50.998;4.250;2023-01-27T01:03:06;102097.00;;;8.19;66.08
13593;BME280;6867;50.998;4.250;2023-01-27T01:05:34;102083.06;;;7.82;66.30
13593;BME280;6867;50.998;4.250;2023-01-27T01:08:01;102064.69;;;7.87;66.44
13593;BME280;6867;50.998;4.250;2023-01-27T01:10:28;102040.22;;;8.08;65.74
13593;BME280;6867;50.998;4.250;2023-01-27T01:12:55;102034.03;;;7.81;65.84
13593;BME280;6867;50.998;4.250;2023-01-27T01:15:21;102062.91;;;7.95;65.95
13593;BME280;6867;50.998;4.250;2023-01-27T01:17:48;102076.56;;;8.18;66.15
13593;BME280;6867;50.998;4.250;2023-01-27T01:20:15;102074.75;;;7.93;66.14
13593;BME280;6867;50.998;4.250;2023-01-27T01:22:43;102092.75;;;7.83;66.54
13593;BME280;6867;50.998;4.250;2023-01-27T01:25:10;102072.13;;;8.01;65.98
13593;BME280;6867;50.998;4.250;2023-01-27T01:27:36;102065.00;;;7.58;66.94
13593;BME280;6867;50.998;4.250;2023-01-27T01:30:04;102084.19;;;7.53;67.63
13593;BME280;6867;50.998;4.250;2023-01-27T01:32:30;102080.28;;;7.65;67.58
13593;BME280;6867;50.998;4.250;2023-01-27T01:34:57;102072.97;;;8.02;67.11
13593;BME280;6867;50.998;4.250;2023-01-27T01:37:24;102060.50;;;8.18;66.36
13593;BME280;6867;50.998;4.250;2023-01-27T01:39:52;102065.66;;;8.12;65.89
13593;BME280;6867;50.998;4.250;2023-01-27T01:42:18;102067.56;;;7.93;66.53
13593;BME280;6867;50.998;4.250;2023-01-27T01:44:45;102090.41;;;8.14;66.33
13593;BME280;6867;50.998;4.250;2023-01-27T01:47:14;102065.19;;;8.16;66.56
13593;BME280;6867;50.998;4.250;2023-01-27T01:49:43;102071.59;;;8.23;66.26
13593;BME280;6867;50.998;4.250;2023-01-27T01:52:12;102072.34;;;8.08;66.71
13593;BME280;6867;50.998;4.250;2023-01-27T01:54:43;102063.63;;;8.40;66.38
13593;BME280;6867;50.998;4.250;2023-01-27T01:57:16;102060.84;;;8.50;65.31
13593;BME280;6867;50.998;4.250;2023-01-27T01:59:47;102068.69;;;7.83;66.98
13593;BME280;6867;50.998;4.250;2023-01-27T02:02:17;102078.91;;;8.21;67.01
13593;BME280;6867;50.998;4.250;2023-01-27T02:04:49;102070.81;;;8.39;66.22
13593;BME280;6867;50.998;4.250;2023-01-27T02:07:23;102071.66;;;8.40;66.15
13593;BME280;6867;50.998;4.250;2023-01-27T02:09:51;102060.47;;;8.53;66.07
13593;BME280;6867;50.998;4.250;2023-01-27T02:12:20;102071.19;;;8.53;65.96
13593;BME280;6867;50.998;4.250;2023-01-27T02:14:46;102066.41;;;8.30;65.73
13593;BME280;6867;50.998;4.250;2023-01-27T02:17:13;102070.75;;;8.31;66.41
13593;BME280;6867;50.998;4.250;2023-01-27T02:19:48;102078.44;;;8.26;66.77
13593;BME280;6867;50.998;4.250;2023-01-27T02:22:25;102077.22;;;8.46;66.31
13593;BME280;6867;50.998;4.250;2023-01-27T02:25:01;102075.44;;;8.29;66.78
13593;BME280;6867;50.998;4.250;2023-01-27T02:27:33;102094.19;;;8.29;66.75
13593;BME280;6867;50.998;4.250;2023-01-27T02:29:59;102088.47;;;8.24;66.68
13593;BME280;6867;50.998;4.250;2023-01-27T02:32:26;102083.56;;;8.11;66.60
13593;BME280;6867;50.998;4.250;2023-01-27T02:34:54;102095.38;;;8.01;67.41
13593;BME280;6867;50.998;4.250;2023-01-27T02:37:22;102082.28;;;8.23;66.35
13593;BME280;6867;50.998;4.250;2023-01-27T02:39:50;102064.44;;;7.72;66.69
13593;BME280;6867;50.998;4.250;2023-01-27T02:42:18;102082.69;;;8.11;67.19
13593;BME280;6867;50.998;4.250;2023-01-27T02:44:46;102041.09;;;7.82;66.01
13593;BME280;6867;50.998;4.250;2023-01-27T02:47:13;102067.09;;;7.72;66.48
13593;BME280;6867;50.998;4.250;2023-01-27T02:49:39;102066.50;;;7.78;66.55
13593;BME280;6867;50.998;4.250;2023-01-27T02:52:06;102062.50;;;7.82;66.45
13593;BME280;6867;50.998;4.250;2023-01-27T02:54:33;102037.59;;;7.82;65.84
13593;BME280;6867;50.998;4.250;2023-01-27T02:56:59;102039.94;;;7.85;65.94
13593;BME280;6867;50.998;4.250;2023-01-27T02:59:26;102027.44;;;7.93;65.84
13593;BME280;6867;50.998;4.250;2023-01-27T03:01:54;102035.00;;;7.72;65.73
13593;BME280;6867;50.998;4.250;2023-01-27T03:04:21;102057.56;;;7.95;66.00
13593;BME280;6867;50.998;4.250;2023-01-27T03:06:47;102047.59;;;7.80;66.14
13593;BME280;6867;50.998;4.250;2023-01-27T03:09:14;102078.09;;;7.69;67.09
13593;BME280;6867;50.998;4.250;2023-01-27T03:11:41;102080.22;;;7.83;66.37
13593;BME280;6867;50.998;4.250;2023-01-27T03:14:25;102072.97;;;7.76;66.53
13593;BME280;6867;50.998;4.250;2023-01-27T03:17:10;102085.50;;;7.75;67.13
13593;BME280;6867;50.998;4.250;2023-01-27T03:19:54;102069.81;;;7.80;66.53
13593;BME280;6867;50.998;4.250;2023-01-27T03:22:21;102065.69;;;7.60;66.99
13593;BME280;6867;50.998;4.250;2023-01-27T03:24:48;102070.94;;;7.69;66.44
13593;BME280;6867;50.998;4.250;2023-01-27T03:27:14;102070.31;;;7.76;66.78
13593;BME280;6867;50.998;4.250;2023-01-27T03:29:41;102055.09;;;7.76;66.44
13593;BME280;6867;50.998;4.250;2023-01-27T03:32:21;102061.44;;;7.75;65.94
13593;BME280;6867;50.998;4.250;2023-01-27T03:34:48;102055.97;;;7.85;65.83
13593;BME280;6867;50.998;4.250;2023-01-27T03:37:15;102039.22;;;7.74;65.88
13593;BME280;6867;50.998;4.250;2023-01-27T03:39:59;102046.22;;;7.76;66.48
13593;BME280;6867;50.998;4.250;2023-01-27T03:42:43;102049.16;;;7.64;66.23
13593;BME280;6867;50.998;4.250;2023-01-27T03:45:27;102064.00;;;7.85;65.77
13593;BME280;6867;50.998;4.250;2023-01-27T03:48:16;102055.53;;;7.97;65.50
13593;BME280;6867;50.998;4.250;2023-01-27T03:50:45;102049.44;;;8.13;65.60
13593;BME280;6867;50.998;4.250;2023-01-27T03:53:17;102059.31;;;8.13;65.77
13593;BME280;6867;50.998;4.250;2023-01-27T03:55:44;102051.59;;;8.10;65.30
13593;BME280;6867;50.998;4.250;2023-01-27T03:58:18;102066.25;;;7.97;65.63
13593;BME280;6867;50.998;4.250;2023-01-27T04:00:48;102069.31;;;8.03;65.36
13593;BME280;6867;50.998;4.250;2023-01-27T04:03:17;102068.66;;;8.09;65.72
13593;BME280;6867;50.998;4.250;2023-01-27T04:06:04;102080.41;;;8.16;66.13
13593;BME280;6867;50.998;4.250;2023-01-27T04:08:49;102066.25;;;7.97;65.75
13593;BME280;6867;50.998;4.250;2023-01-27T04:11:16;102076.59;;;7.92;65.84
13593;BME280;6867;50.998;4.250;2023-01-27T04:14:00;102075.75;;;7.92;66.12
13593;BME280;6867;50.998;4.250;2023-01-27T04:16:27;102093.59;;;7.83;66.31
13593;BME280;6867;50.998;4.250;2023-01-27T04:18:56;102089.38;;;7.81;66.65
13593;BME280;6867;50.998;4.250;2023-01-27T04:21:23;102102.22;;;7.77;66.72
13593;BME280;6867;50.998;4.250;2023-01-27T04:23:51;102098.78;;;7.59;66.38
13593;BME280;6867;50.998;4.250;2023-01-27T04:26:18;102104.78;;;7.79;66.29
13593;BME280;6867;50.998;4.250;2023-01-27T04:28:45;102105.50;;;7.89;66.71
13593;BME280;6867;50.998;4.250;2023-01-27T04:31:12;102109.84;;;7.90;66.01
13593;BME280;6867;50.998;4.250;2023-01-27T04:33:39;102102.56;;;7.74;66.41
13593;BME280;6867;50.998;4.250;2023-01-27T04:36:08;102114.50;;;7.44;67.51
13593;BME280;6867;50.998;4.250;2023-01-27T04:38:35;102114.44;;;7.54;66.84
13593;BME280;6867;50.998;4.250;2023-01-27T04:41:02;102120.25;;;7.13;67.49
13593;BME280;6867;50.998;4.250;2023-01-27T04:43:28;102114.28;;;7.55;67.15
13593;BME280;6867;50.998;4.250;2023-01-27T04:45:55;102099.41;;;7.53;66.29
13593;BME280;6867;50.998;4.250;2023-01-27T04:48:22;102106.19;;;7.47;66.90
13593;BME280;6867;50.998;4.250;2023-01-27T04:50:48;102115.81;;;7.22;67.06
13593;BME280;6867;50.998;4.250;2023-01-27T04:53:16;102140.13;;;7.29;67.52
13593;BME280;6867;50.998;4.250;2023-01-27T04:55:47;102139.88;;;7.22;67.93
13593;BME280;6867;50.998;4.250;2023-01-27T04:58:14;102145.53;;;7.19;67.81
13593;BME280;6867;50.998;4.250;2023-01-27T05:00:42;102134.25;;;7.25;67.16
13593;BME280;6867;50.998;4.250;2023-01-27T05:03:09;102132.56;;;7.24;67.36
13593;BME280;6867;50.998;4.250;2023-01-27T05:05:36;102143.84;;;7.18;67.49
13593;BME280;6867;50.998;4.250;2023-01-27T05:08:03;102144.19;;;7.15;67.73
13593;BME280;6867;50.998;4.250;2023-01-27T05:10:31;102138.19;;;7.39;67.35
13593;BME280;6867;50.998;4.250;2023-01-27T05:12:58;102134.63;;;7.12;67.14
13593;BME280;6867;50.998;4.250;2023-01-27T05:15:26;102138.94;;;6.95;67.34
13593;BME280;6867;50.998;4.250;2023-01-27T05:17:52;102144.28;;;6.95;67.83
13593;BME280;6867;50.998;4.250;2023-01-27T05:20:19;102146.16;;;6.85;67.46
13593;BME280;6867;50.998;4.250;2023-01-27T05:22:46;102153.13;;;6.78;67.86
13593;BME280;6867;50.998;4.250;2023-01-27T05:25:13;102167.44;;;6.77;67.85
13593;BME280;6867;50.998;4.250;2023-01-27T05:27:41;102195.97;;;6.77;68.31
13593;BME280;6867;50.998;4.250;2023-01-27T05:30:09;102178.81;;;6.79;68.10
13593;BME280;6867;50.998;4.250;2023-01-27T05:32:35;102183.81;;;6.64;68.64
13593;BME280;6867;50.998;4.250;2023-01-27T05:35:03;102179.56;;;6.44;68.29
13593;BME280;6867;50.998;4.250;2023-01-27T05:37:29;102184.84;;;6.54;68.45
13593;BME280;6867;50.998;4.250;2023-01-27T05:39:56;102190.31;;;6.62;68.86
13593;BME280;6867;50.998;4.250;2023-01-27T05:42:23;102174.94;;;6.36;68.61
13593;BME280;6867;50.998;4.250;2023-01-27T05:44:51;102197.03;;;6.56;69.08
13593;BME280;6867;50.998;4.250;2023-01-27T05:47:18;102202.00;;;6.51;68.88
13593;BME280;6867;50.998;4.250;2023-01-27T05:49:45;102193.81;;;6.06;68.95
13593;BME280;6867;50.998;4.250;2023-01-27T05:52:11;102211.47;;;6.26;69.12
13593;BME280;6867;50.998;4.250;2023-01-27T05:54:38;102201.91;;;6.33;69.08
13593;BME280;6867;50.998;4.250;2023-01-27T05:57:05;102203.09;;;6.02;68.98
13593;BME280;6867;50.998;4.250;2023-01-27T05:59:32;102217.25;;;6.21;69.82
13593;BME280;6867;50.998;4.250;2023-01-27T06:02:00;102219.78;;;6.13;69.50
13593;BME280;6867;50.998;4.250;2023-01-27T06:04:26;102222.28;;;6.34;69.33
13593;BME280;6867;50.998;4.250;2023-01-27T06:06:53;102219.59;;;6.34;69.67
13593;BME280;6867;50.998;4.250;2023-01-27T06:09:20;102233.00;;;6.15;70.32
13593;BME280;6867;50.998;4.250;2023-01-27T06:11:46;102237.00;;;6.38;69.42
13593;BME280;6867;50.998;4.250;2023-01-27T06:14:13;102235.63;;;6.44;69.65
13593;BME280;6867;50.998;4.250;2023-01-27T06:16:40;102231.34;;;6.51;69.47
13593;BME280;6867;50.998;4.250;2023-01-27T06:19:10;102235.28;;;6.57;69.29
13593;BME280;6867;50.998;4.250;2023-01-27T06:21:37;102221.44;;;6.34;69.46
13593;BME280;6867;50.998;4.250;2023-01-27T06:24:04;102239.97;;;6.35;69.71
13593;BME280;6867;50.998;4.250;2023-01-27T06:26:31;102246.88;;;6.28;69.74
13593;BME280;6867;50.998;4.250;2023-01-27T06:28:57;102261.63;;;6.32;70.50
13593;BME280;6867;50.998;4.250;2023-01-27T06:31:24;102265.84;;;6.06;71.11
13593;BME280;6867;50.998;4.250;2023-01-27T06:33:51;102287.31;;;6.33;70.63
13593;BME280;6867;50.998;4.250;2023-01-27T06:36:20;102266.66;;;6.35;70.34
13593;BME280;6867;50.998;4.250;2023-01-27T06:38:48;102289.03;;;6.15;71.13
13593;BME280;6867;50.998;4.250;2023-01-27T06:41:15;102281.94;;;6.43;70.90
13593;BME280;6867;50.998;4.250;2023-01-27T06:43:42;102281.00;;;6.34;71.15
13593;BME280;6867;50.998;4.250;2023-01-27T06:46:09;102284.53;;;6.15;71.25
13593;BME280;6867;50.998;4.250;2023-01-27T06:48:35;102306.44;;;6.19;71.57
13593;BME280;6867;50.998;4.250;2023-01-27T06:51:03;102302.25;;;6.07;72.05
13593;BME280;6867;50.998;4.250;2023-01-27T06:53:31;102313.31;;;6.31;71.88
13593;BME280;6867;50.998;4.250;2023-01-27T06:56:00;102291.13;;;6.11;72.00
13593;BME280;6867;50.998;4.250;2023-01-27T06:58:27;102304.19;;;6.24;72.00
13593;BME280;6867;50.998;4.250;2023-01-27T07:00:54;102303.06;;;6.36;72.02
13593;BME280;6867;50.998;4.250;2023-01-27T07:03:21;102311.34;;;6.33;72.26
13593;BME280;6867;50.998;4.250;2023-01-27T07:05:48;102311.50;;;6.32;72.40
13593;BME280;6867;50.998;4.250;2023-01-27T07:08:15;102310.59;;;6.51;72.10
13593;BME280;6867;50.998;4.250;2023-01-27T07:10:43;102330.31;;;6.40;72.48
13593;BME280;6867;50.998;4.250;2023-01-27T07:13:11;102327.63;;;6.40;72.56
13593;BME280;6867;50.998;4.250;2023-01-27T07:15:38;102326.09;;;6.37;72.76
13593;BME280;6867;50.998;4.250;2023-01-27T07:18:05;102337.75;;;6.17;73.11
13593;BME280;6867;50.998;4.250;2023-01-27T07:20:32;102354.59;;;6.37;73.61
13593;BME280;6867;50.998;4.250;2023-01-27T07:23:00;102337.03;;;6.54;73.68
13593;BME280;6867;50.998;4.250;2023-01-27T07:25:28;102331.97;;;6.41;73.28
13593;BME280;6867;50.998;4.250;2023-01-27T07:27:57;102325.94;;;6.48;72.95
13593;BME280;6867;50.998;4.250;2023-01-27T07:30:25;102328.31;;;6.52;72.58
13593;BME280;6867;50.998;4.250;2023-01-27T07:32:51;102317.63;;;6.52;72.31
13593;BME280;6867;50.998;4.250;2023-01-27T07:35:20;102304.03;;;6.26;72.29
13593;BME280;6867;50.998;4.250;2023-01-27T07:37:46;102339.00;;;6.13;73.46
13593;BME280;6867;50.998;4.250;2023-01-27T07:40:13;102331.69;;;6.54;72.73
13593;BME280;6867;50.998;4.250;2023-01-27T07:42:40;102325.47;;;6.63;72.45
13593;BME280;6867;50.998;4.250;2023-01-27T07:45:09;102323.41;;;6.47;72.34
13593;BME280;6867;50.998;4.250;2023-01-27T07:47:36;102326.75;;;6.59;72.38
13593;BME280;6867;50.998;4.250;2023-01-27T07:50:03;102319.47;;;6.61;72.33
13593;BME280;6867;50.998;4.250;2023-01-27T07:52:30;102322.13;;;6.61;72.23
13593;BME280;6867;50.998;4.250;2023-01-27T07:54:57;102324.88;;;6.79;71.86
13593;BME280;6867;50.998;4.250;2023-01-27T07:57:23;102317.44;;;6.82;71.79
13593;BME280;6867;50.998;4.250;2023-01-27T07:59:50;102319.53;;;6.79;71.46
13593;BME280;6867;50.998;4.250;2023-01-27T08:02:21;102322.53;;;6.66;72.21
13593;BME280;6867;50.998;4.250;2023-01-27T08:04:48;102325.75;;;6.69;71.99
13593;BME280;6867;50.998;4.250;2023-01-27T08:07:15;102323.72;;;6.81;71.62
13593;BME280;6867;50.998;4.250;2023-01-27T08:09:42;102322.50;;;6.76;71.35
13593;BME280;6867;50.998;4.250;2023-01-27T08:12:08;102333.75;;;6.79;71.51
13593;BME280;6867;50.998;4.250;2023-01-27T08:14:35;102333.63;;;6.52;71.54
13593;BME280;6867;50.998;4.250;2023-01-27T08:17:02;102345.03;;;6.54;71.88
13593;BME280;6867;50.998;4.250;2023-01-27T08:19:30;102347.84;;;6.62;71.63
13593;BME280;6867;50.998;4.250;2023-01-27T08:21:57;102338.56;;;6.66;71.61
13593;BME280;6867;50.998;4.250;2023-01-27T08:24:23;102332.50;;;6.73;71.19
13593;BME280;6867;50.998;4.250;2023-01-27T08:26:50;102333.25;;;6.93;70.88
13593;BME280;6867;50.998;4.250;2023-01-27T08:29:17;102337.16;;;7.09;70.74
13593;BME280;6867;50.998;4.250;2023-01-27T08:31:43;102322.00;;;6.99;70.28
13593;BME280;6867;50.998;4.250;2023-01-27T08:34:10;102332.53;;;6.54;71.25
13593;BME280;6867;50.998;4.250;2023-01-27T08:36:40;102339.53;;;6.65;71.09
13593;BME280;6867;50.998;4.250;2023-01-27T08:39:08;102326.03;;;6.66;70.94
13593;BME280;6867;50.998;4.250;2023-01-27T08:41:35;102341.59;;;6.90;70.68
13593;BME280;6867;50.998;4.250;2023-01-27T08:44:02;102333.25;;;6.93;70.81
13593;BME280;6867;50.998;4.250;2023-01-27T08:46:28;102331.19;;;6.87;71.03
13593;BME280;6867;50.998;4.250;2023-01-27T08:48:55;102333.38;;;6.55;70.99
13593;BME280;6867;50.998;4.250;2023-01-27T08:51:22;102349.66;;;6.52;71.38
13593;BME280;6867;50.998;4.250;2023-01-27T08:53:50;102349.91;;;6.78;71.31
13593;BME280;6867;50.998;4.250;2023-01-27T08:56:17;102347.22;;;6.87;70.72
13593;BME280;6867;50.998;4.250;2023-01-27T08:58:44;102346.69;;;6.74;70.94
13593;BME280;6867;50.998;4.250;2023-01-27T09:01:14;102345.78;;;6.93;70.81
13593;BME280;6867;50.998;4.250;2023-01-27T09:03:41;102340.00;;;6.97;70.33
13593;BME280;6867;50.998;4.250;2023-01-27T09:06:09;102326.28;;;6.83;69.91
13593;BME280;6867;50.998;4.250;2023-01-27T09:08:37;102333.69;;;6.89;69.90
13593;BME280;6867;50.998;4.250;2023-01-27T09:11:10;102327.91;;;7.03;69.50
13593;BME280;6867;50.998;4.250;2023-01-27T09:13:37;102321.13;;;7.09;69.15
13593;BME280;6867;50.998;4.250;2023-01-27T09:16:04;102320.22;;;6.90;69.44
13593;BME280;6867;50.998;4.250;2023-01-27T09:18:31;102309.31;;;7.02;69.21
13593;BME280;6867;50.998;4.250;2023-01-27T09:21:01;102314.59;;;7.21;68.84
13593;BME280;6867;50.998;4.250;2023-01-27T09:23:28;102305.69;;;7.30;68.34
13593;BME280;6867;50.998;4.250;2023-01-27T09:25:55;102314.88;;;7.18;68.75
13593;BME280;6867;50.998;4.250;2023-01-27T09:28:23;102282.13;;;7.16;68.11
13593;BME280;6867;50.998;4.250;2023-01-27T09:30:49;102287.53;;;7.34;67.59
13593;BME280;6867;50.998;4.250;2023-01-27T09:33:16;102282.63;;;7.57;67.32
13593;BME280;6867;50.998;4.250;2023-01-27T09:35:45;102260.84;;;7.24;66.73
13593;BME280;6867;50.998;4.250;2023-01-27T09:38:16;102286.31;;;7.46;66.51
13593;BME280;6867;50.998;4.250;2023-01-27T09:40:55;102277.47;;;7.45;67.06
13593;BME280;6867;50.998;4.250;2023-01-27T09:43:40;102270.91;;;7.58;66.25
13593;BME280;6867;50.998;4.250;2023-01-27T09:46:27;102258.81;;;7.36;66.39
13593;BME280;6867;50.998;4.250;2023-01-27T09:49:13;102262.25;;;7.46;66.10
13593;BME280;6867;50.998;4.250;2023-01-27T09:51:55;102252.50;;;7.55;65.86
13593;BME280;6867;50.998;4.250;2023-01-27T09:54:46;102236.63;;;7.53;64.89
13593;BME280;6867;50.998;4.250;2023-01-27T09:57:23;102247.22;;;7.63;65.32
13593;BME280;6867;50.998;4.250;2023-01-27T10:00:02;102250.88;;;7.97;64.67
13593;BME280;6867;50.998;4.250;2023-01-27T10:02:54;102216.63;;;8.01;64.24
13593;BME280;6867;50.998;4.250;2023-01-27T10:05:46;102207.22;;;7.97;64.01
13593;BME280;6867;50.998;4.250;2023-01-27T10:08:34;102212.72;;;8.13;63.41
13593;BME280;6867;50.998;4.250;2023-01-27T10:11:12;102182.94;;;7.90;62.80
13593;BME280;6867;50.998;4.250;2023-01-27T10:13:48;102192.00;;;7.97;63.48
13593;BME280;6867;50.998;4.250;2023-01-27T10:16:31;102198.78;;;8.10;63.42
13593;BME280;6867;50.998;4.250;2023-01-27T10:19:21;102199.44;;;8.04;62.96
13593;BME280;6867;50.998;4.250;2023-01-27T10:21:56;102189.97;;;8.17;63.28
13593;BME280;6867;50.998;4.250;2023-01-27T10:24:38;102196.47;;;8.15;63.38
13593;BME280;6867;50.998;4.250;2023-01-27T10:27:13;102183.91;;;8.33;62.80
13593;BME280;6867;50.998;4.250;2023-01-27T10:29:44;102184.09;;;8.14;62.36
13593;BME280;6867;50.998;4.250;2023-01-27T10:32:22;102202.75;;;8.23;62.45
13593;BME280;6867;50.998;4.250;2023-01-27T10:34:59;102146.41;;;7.81;62.30
13593;BME280;6867;50.998;4.250;2023-01-27T10:37:35;102188.91;;;7.84;62.64
13593;BME280;6867;50.998;4.250;2023-01-27T10:40:17;102183.97;;;7.97;63.04
13593;BME280;6867;50.998;4.250;2023-01-27T10:42:52;102191.88;;;8.25;62.42
13593;BME280;6867;50.998;4.250;2023-01-27T10:45:28;102158.53;;;7.93;62.24
13593;BME280;6867;50.998;4.250;2023-01-27T10:48:17;102186.69;;;7.80;62.97
13593;BME280;6867;50.998;4.250;2023-01-27T10:50:51;102175.53;;;7.84;62.55
13593;BME280;6867;50.998;4.250;2023-01-27T10:53:28;102185.63;;;7.90;62.29
13593;BME280;6867;50.998;4.250;2023-01-27T10:56:02;102190.75;;;7.66;62.97
13593;BME280;6867;50.998;4.250;2023-01-27T10:58:41;102188.38;;;7.98;62.60
13593;BME280;6867;50.998;4.250;2023-01-27T11:01:11;102178.97;;;7.94;61.96
13593;BME280;6867;50.998;4.250;2023-01-27T11:03:44;102183.00;;;7.98;62.28
13593;BME280;6867;50.998;4.250;2023-01-27T11:06:14;102190.44;;;7.87;62.95
13593;BME280;6867;50.998;4.250;2023-01-27T11:08:45;102183.56;;;7.84;62.85
13593;BME280;6867;50.998;4.250;2023-01-27T11:11:14;102187.00;;;7.94;62.72
13593;BME280;6867;50.998;4.250;2023-01-27T11:14:03;102199.91;;;8.25;62.46
13593;BME280;6867;50.998;4.250;2023-01-27T11:16:36;102192.00;;;8.41;62.06
13593;BME280;6867;50.998;4.250;2023-01-27T11:19:13;102146.69;;;8.22;60.88
13593;BME280;6867;50.998;4.250;2023-01-27T11:21:42;102124.63;;;8.28;60.39
13593;BME280;6867;50.998;4.250;2023-01-27T11:24:20;102097.19;;;8.26;60.39
13593;BME280;6867;50.998;4.250;2023-01-27T11:26:51;102114.91;;;8.27;59.78
13593;BME280;6867;50.998;4.250;2023-01-27T11:29:29;102128.34;;;8.35;60.39
13593;BME280;6867;50.998;4.250;2023-01-27T11:32:02;102136.00;;;8.30;60.82
13593;BME280;6867;50.998;4.250;2023-01-27T11:34:36;102112.34;;;8.43;59.99
13593;BME280;6867;50.998;4.250;2023-01-27T11:37:16;102113.28;;;8.34;60.09
13593;BME280;6867;50.998;4.250;2023-01-27T11:39:44;102094.25;;;8.37;60.04
13593;BME280;6867;50.998;4.250;2023-01-27T11:42:11;102113.16;;;8.78;59.67
13593;BME280;6867;50.998;4.250;2023-01-27T11:44:38;102101.13;;;8.90;59.50
13593;BME280;6867;50.998;4.250;2023-01-27T11:47:06;102055.09;;;9.11;58.49
13593;BME280;6867;50.998;4.250;2023-01-27T11:49:38;102068.66;;;9.10;58.63
13593;BME280;6867;50.998;4.250;2023-01-27T11:52:11;102044.47;;;8.69;58.55
13593;BME280;6867;50.998;4.250;2023-01-27T11:54:39;102053.00;;;8.72;58.56
13593;BME280;6867;50.998;4.250;2023-01-27T11:57:16;102058.25;;;8.82;57.89
13593;BME280;6867;50.998;4.250;2023-01-27T11:59:44;102077.00;;;8.98;58.46
13593;BME280;6867;50.998;4.250;2023-01-27T12:02:21;102067.31;;;9.46;57.33
13593;BME280;6867;50.998;4.250;2023-01-27T12:04:57;102041.66;;;9.36;57.71
13593;BME280;6867;50.998;4.250;2023-01-27T12:07:34;102039.34;;;9.16;57.69
13593;BME280;6867;50.998;4.250;2023-01-27T12:10:21;102023.59;;;9.13;57.42
13593;BME280;6867;50.998;4.250;2023-01-27T12:12:48;102022.41;;;9.00;57.34
13593;BME280;6867;50.998;4.250;2023-01-27T12:15:16;102040.50;;;9.30;57.54
13593;BME280;6867;50.998;4.250;2023-01-27T12:17:45;102004.63;;;9.23;56.67
13593;BME280;6867;50.998;4.250;2023-01-27T12:20:25;101995.13;;;9.04;56.08
13593;BME280;6867;50.998;4.250;2023-01-27T12:22:56;102032.47;;;9.14;57.09
13593;BME280;6867;50.998;4.250;2023-01-27T12:25:26;102036.47;;;9.18;57.11
13593;BME280;6867;50.998;4.250;2023-01-27T12:27:56;102028.28;;;8.87;57.42
13593;BME280;6867;50.998;4.250;2023-01-27T12:30:26;102069.59;;;8.76;57.79
13593;BME280;6867;50.998;4.250;2023-01-27T12:32:54;102087.66;;;8.66;58.40
13593;BME280;6867;50.998;4.250;2023-01-27T12:35:25;102082.94;;;8.60;58.73
13593;BME280;6867;50.998;4.250;2023-01-27T12:38:00;102069.88;;;8.48;58.95
13593;BME280;6867;50.998;4.250;2023-01-27T12:40:28;102090.28;;;8.50;58.87
13593;BME280;6867;50.998;4.250;2023-01-27T12:43:09;102110.31;;;8.37;60.24
13593;BME280;6867;50.998;4.250;2023-01-27T12:45:36;102105.84;;;8.46;59.81
13593;BME280;6867;50.998;4.250;2023-01-27T12:48:19;102132.66;;;8.54;60.11
13593;BME280;6867;50.998;4.250;2023-01-27T12:50:56;102096.75;;;8.39;59.91
13593;BME280;6867;50.998;4.250;2023-01-27T12:53:30;102101.53;;;8.53;59.88
13593;BME280;6867;50.998;4.250;2023-01-27T12:55:59;102089.25;;;8.42;59.12
13593;BME280;6867;50.998;4.250;2023-01-27T12:58:31;102086.63;;;8.24;59.52
13593;BME280;6867;50.998;4.250;2023-01-27T13:01:00;102098.22;;;8.33;59.86
13593;BME280;6867;50.998;4.250;2023-01-27T13:03:29;102101.63;;;8.43;60.03
13593;BME280;6867;50.998;4.250;2023-01-27T13:05:58;102085.16;;;8.30;58.95
13593;BME280;6867;50.998;4.250;2023-01-27T13:08:26;102087.72;;;8.40;59.54
13593;BME280;6867;50.998;4.250;2023-01-27T13:10:56;102059.69;;;8.26;59.07
13593;BME280;6867;50.998;4.250;2023-01-27T13:13:25;102074.53;;;8.12;59.18
13593;BME280;6867;50.998;4.250;2023-01-27T13:15:54;102098.34;;;7.97;60.13
13593;BME280;6867;50.998;4.250;2023-01-27T13:18:22;102090.72;;;8.03;59.70
13593;BME280;6867;50.998;4.250;2023-01-27T13:20:51;102108.59;;;8.28;60.62
13593;BME280;6867;50.998;4.250;2023-01-27T13:23:22;102075.72;;;7.84;59.93
13593;BME280;6867;50.998;4.250;2023-01-27T13:25:54;102101.44;;;8.11;59.57